Time;durP1;ratioP1;P1;durP2;ratioP2;P2;SDS_P1;SDS_P2;PMS_P1;PMS_P2;Temp;Humidity;BMP_temperature;BMP_pressure;BME280_temperature;BME280_humidity;BME280_pressure;Samples;Min_cycle;Max_cycle;Signal;HPM_P1;HPM_P2
2022/07/04 00:00:21;;;;;;;5.43;3.83;;;;;;;20.62;81.77;99956.25;6214481;23;20012;-82
2022/07/04 00:02:47;;;;;;;3.92;3.53;;;;;;;20.55;82.32;99951.09;6213846;23;20004;-82
2022/07/04 00:05:14;;;;;;;4.30;3.90;;;;;;;20.46;82.99;99937.25;6187712;23;20493;-82
2022/07/04 00:07:41;;;;;;;4.20;3.80;;;;;;;20.38;83.79;99942.56;6214081;23;20091;-82
2022/07/04 00:10:08;;;;;;;4.88;3.58;;;;;;;20.39;83.87;99955.38;6213726;23;20056;-82
2022/07/04 00:12:33;;;;;;;6.00;3.63;;;;;;;20.50;83.17;99942.63;6212544;23;20013;-82
2022/07/04 00:14:59;;;;;;;5.00;3.80;;;;;;;20.52;84.00;99948.50;6214177;23;20088;-88
2022/07/04 00:17:24;;;;;;;4.45;3.70;;;;;;;20.51;83.34;99944.16;6186327;23;20008;-88
2022/07/04 00:19:50;;;;;;;4.32;3.92;;;;;;;20.43;83.57;99941.84;6214376;23;20013;-88
2022/07/04 00:22:15;;;;;;;4.53;3.75;;;;;;;20.46;82.99;99920.34;6187111;23;20016;-88
2022/07/04 00:24:41;;;;;;;4.82;3.78;;;;;;;20.73;81.38;99944.22;6213828;23;20103;-88
2022/07/04 00:27:07;;;;;;;5.25;3.67;;;;;;;20.65;81.90;99948.81;6214399;23;20012;-88
2022/07/04 00:29:33;;;;;;;3.90;3.42;;;;;;;20.71;81.24;99949.59;6214054;23;20464;-87
2022/07/04 00:31:59;;;;;;;4.80;3.72;;;;;;;20.62;82.04;99947.03;6188015;23;20036;-88
2022/07/04 00:34:25;;;;;;;4.30;3.50;;;;;;;20.46;82.83;99938.00;6214614;23;20012;-87
2022/07/04 00:36:50;;;;;;;4.22;3.53;;;;;;;20.26;84.77;99952.22;6162331;23;20054;-88
2022/07/04 00:39:18;;;;;;;4.13;3.72;;;;;;;20.22;85.07;99950.97;6214583;23;20380;-89
2022/07/04 00:41:43;;;;;;;4.32;3.75;;;;;;;20.10;86.31;99955.00;6213643;23;20616;-89
2022/07/04 00:44:10;;;;;;;4.72;3.72;;;;;;;20.16;85.88;99945.28;6214576;23;20043;-88
2022/07/04 00:46:36;;;;;;;5.70;3.90;;;;;;;20.27;85.01;99959.41;6213804;23;20016;-88
2022/07/04 00:49:05;;;;;;;4.22;3.63;;;;;;;20.40;84.01;99950.53;6214689;23;20000;-88
2022/07/04 00:51:31;;;;;;;6.13;3.88;;;;;;;20.39;84.73;99949.75;6214176;23;20012;-88
2022/07/04 00:53:57;;;;;;;5.10;3.72;;;;;;;20.12;85.95;99958.06;6188410;23;20431;-88
2022/07/04 00:56:24;;;;;;;6.28;3.53;;;;;;;20.14;85.04;99961.16;6188602;23;20009;-88
2022/07/04 00:58:51;;;;;;;4.95;3.85;;;;;;;20.00;86.29;99969.28;6163278;23;20012;-88
2022/07/04 01:01:17;;;;;;;5.55;3.78;;;;;;;20.03;86.98;99956.22;6187710;23;20191;-88
2022/07/04 01:03:43;;;;;;;4.45;3.60;;;;;;;20.11;86.41;99960.09;6214293;23;20142;-89
2022/07/04 01:06:09;;;;;;;4.80;3.60;;;;;;;20.11;86.36;99968.56;6188668;23;20011;-88
2022/07/04 01:08:40;;;;;;;6.10;4.10;;;;;;;20.00;86.59;99940.34;6162906;23;20009;-88
2022/07/04 01:11:06;;;;;;;4.20;3.58;;;;;;;19.90;87.47;99947.44;6188102;23;20068;-87
2022/07/04 01:13:31;;;;;;;5.90;3.85;;;;;;;19.93;87.32;99952.09;6214141;23;20526;-88
2022/07/04 01:15:57;;;;;;;4.07;3.67;;;;;;;19.89;87.88;99945.94;6214319;23;20108;-88
2022/07/04 01:18:22;;;;;;;6.00;3.80;;;;;;;19.75;88.77;99944.03;6214359;23;20042;-88
2022/07/04 01:20:48;;;;;;;4.45;3.75;;;;;;;19.91;87.96;99949.00;6188281;23;20013;-88
2022/07/04 01:23:14;;;;;;;5.10;3.58;;;;;;;19.91;87.90;99943.34;6214224;23;20419;-87
2022/07/04 01:25:39;;;;;;;5.25;3.72;;;;;;;19.76;88.74;99940.72;6214565;23;20070;-87
2022/07/04 01:28:06;;;;;;;6.00;3.78;;;;;;;19.73;88.80;99938.94;6214137;23;20009;-88
2022/07/04 01:30:33;;;;;;;4.57;4.13;;;;;;;19.74;88.36;99931.22;6212687;23;20378;-82
2022/07/04 01:32:58;;;;;;;5.40;3.90;;;;;;;19.39;90.75;99937.88;6186819;23;20013;-81
2022/07/04 01:35:24;;;;;;;5.75;3.83;;;;;;;19.57;89.64;99928.34;6213551;23;20581;-82
2022/07/04 01:37:50;;;;;;;4.30;3.90;;;;;;;19.69;88.48;99929.16;6185683;23;20080;-82
2022/07/04 01:40:15;;;;;;;5.50;3.92;;;;;;;19.68;88.95;99933.25;6185966;23;20008;-82
2022/07/04 01:42:41;;;;;;;4.32;3.90;;;;;;;19.74;88.76;99937.63;6186513;23;20011;-82
2022/07/04 01:45:08;;;;;;;4.72;3.97;;;;;;;19.90;87.65;99936.19;6213718;23;20009;-82
2022/07/04 01:47:35;;;;;;;4.50;3.58;;;;;;;19.75;88.76;99925.09;6185278;23;20004;-82
2022/07/04 01:50:01;;;;;;;4.65;3.90;;;;;;;19.81;88.58;99933.59;6186251;23;20008;-82
2022/07/04 01:52:26;;;;;;;5.93;3.75;;;;;;;19.87;87.50;99942.81;6212697;23;20021;-82
2022/07/04 01:54:52;;;;;;;5.22;3.78;;;;;;;19.93;86.98;99935.19;6186055;23;20087;-82
2022/07/04 01:57:17;;;;;;;5.80;3.60;;;;;;;19.71;88.28;99920.97;6212918;23;20004;-82
2022/07/04 02:02:27;;;;;;;5.13;3.80;;;;;;;19.77;87.53;99938.69;6211960;23;20020;-82
2022/07/04 02:04:53;;;;;;;4.10;3.70;;;;;;;19.58;89.22;99934.72;6186626;23;20008;-82
2022/07/04 02:07:19;;;;;;;4.15;3.60;;;;;;;19.49;90.29;99930.06;6161769;23;20104;-82
2022/07/04 02:09:44;;;;;;;4.72;3.70;;;;;;;19.49;89.67;99925.19;6186752;23;20338;-82
2022/07/04 02:14:54;;;;;;;5.22;3.83;;;;;;;19.50;88.94;99914.72;6212781;23;20075;-82
2022/07/04 02:17:20;;;;;;;5.57;3.47;;;;;;;19.59;88.97;99917.34;6212768;23;20762;-82
2022/07/04 02:19:45;;;;;;;4.30;3.75;;;;;;;19.55;89.40;99906.31;6186221;23;20008;-83
2022/07/04 02:22:11;;;;;;;5.28;4.28;;;;;;;19.67;89.09;99909.19;6212087;23;20009;-82
2022/07/04 02:24:37;;;;;;;4.93;3.60;;;;;;;19.72;88.63;99914.09;6212556;23;20450;-82
2022/07/04 02:27:03;;;;;;;5.88;4.07;;;;;;;19.49;89.58;99919.56;6212773;23;20496;-82
2022/07/04 02:29:28;;;;;;;6.13;3.97;;;;;;;19.44;89.76;99908.28;6213097;23;20009;-83
2022/07/04 02:31:54;;;;;;;4.32;3.92;;;;;;;19.58;89.22;99920.63;6212594;23;20088;-82
2022/07/04 02:34:20;;;;;;;6.20;4.18;;;;;;;19.50;90.13;99923.94;6186059;23;20012;-83
2022/07/04 02:36:45;;;;;;;5.13;3.97;;;;;;;19.20;92.28;99930.31;6185647;23;20004;-82
2022/07/04 02:39:11;;;;;;;4.85;4.03;;;;;;;19.31;91.01;99925.56;6212546;23;20016;-83
2022/07/04 02:41:36;;;;;;;5.68;3.60;;;;;;;19.35;89.63;99937.34;6185842;23;20016;-82
2022/07/04 02:44:02;;;;;;;5.05;3.85;;;;;;;19.00;90.78;99928.38;6212228;23;20011;-82
2022/07/04 02:46:28;;;;;;;5.80;3.92;;;;;;;19.07;90.44;99922.28;6212244;23;20015;-82
2022/07/04 02:48:53;;;;;;;4.72;3.45;;;;;;;19.12;90.37;99915.94;6185754;23;20005;-82
2022/07/04 02:51:19;;;;;;;4.22;3.60;;;;;;;18.91;91.50;99920.88;6185845;23;20087;-82
2022/07/04 02:53:44;;;;;;;4.13;3.70;;;;;;;18.88;91.38;99916.25;6185458;23;20004;-83
2022/07/04 02:56:10;;;;;;;5.45;3.90;;;;;;;18.96;92.13;99927.81;6211556;23;20442;-83
2022/07/04 02:58:35;;;;;;;7.00;4.22;;;;;;;19.13;91.68;99925.16;6211940;23;20048;-82
2022/07/04 03:01:01;;;;;;;5.38;3.95;;;;;;;19.00;93.21;99915.09;6212345;23;20040;-83
2022/07/04 03:03:27;;;;;;;6.28;4.05;;;;;;;18.95;95.13;99915.03;6185738;23;20020;-83
2022/07/04 03:05:53;;;;;;;5.70;4.13;;;;;;;18.97;96.08;99920.91;6212524;23;20009;-82
2022/07/04 03:08:18;;;;;;;4.65;3.83;;;;;;;19.10;95.67;99918.47;6186028;23;20059;-84
2022/07/04 03:10:44;;;;;;;4.43;4.00;;;;;;;19.25;94.74;99907.84;6211682;23;20032;-82
2022/07/04 03:13:10;;;;;;;4.22;3.83;;;;;;;19.23;94.12;99918.84;6212112;23;20036;-83
2022/07/04 03:15:35;;;;;;;4.88;3.63;;;;;;;19.24;93.60;99920.41;6212309;23;20016;-83
2022/07/04 03:18:01;;;;;;;6.10;4.03;;;;;;;19.23;94.56;99924.47;6212240;23;20016;-84
2022/07/04 03:20:26;;;;;;;5.53;4.07;;;;;;;19.27;94.02;99925.00;6212144;23;20017;-83
2022/07/04 03:22:54;;;;;;;5.63;4.05;;;;;;;19.17;94.70;99923.63;6185286;23;20143;-83
2022/07/04 03:25:20;;;;;;;4.75;4.25;;;;;;;19.02;95.54;99928.63;6212240;23;20020;-82
2022/07/04 03:27:46;;;;;;;4.97;4.22;;;;;;;19.21;95.47;99921.38;6160549;23;20011;-82
2022/07/04 03:30:12;;;;;;;4.55;4.00;;;;;;;19.10;96.08;99915.66;6160609;23;20091;-82
2022/07/04 03:32:38;;;;;;;9.02;4.35;;;;;;;19.21;95.78;99923.44;6185343;23;20009;-82
2022/07/04 03:35:05;;;;;;;8.18;4.20;;;;;;;19.27;94.64;99919.38;6212331;23;20012;-83
2022/07/04 03:37:31;;;;;;;6.78;4.60;;;;;;;19.34;95.36;99927.34;6212186;23;20556;-82
2022/07/04 03:39:56;;;;;;;6.53;4.20;;;;;;;19.29;96.27;99928.09;6185656;23;20043;-83
2022/07/04 03:42:25;;;;;;;6.88;4.10;;;;;;;19.42;94.56;99931.28;6209361;23;20075;-82
2022/07/04 03:44:50;;;;;;;6.35;4.68;;;;;;;19.36;94.38;99932.50;6209775;23;20076;-82
2022/07/04 03:47:16;;;;;;;8.13;4.28;;;;;;;19.41;93.74;99934.59;6160229;23;20118;-83
2022/07/04 03:49:41;;;;;;;6.40;4.20;;;;;;;19.46;94.57;99937.44;6212273;23;20013;-82
2022/07/04 03:52:07;;;;;;;6.88;4.60;;;;;;;19.51;95.42;99939.53;6211837;23;20012;-82
2022/07/04 03:54:32;;;;;;;8.15;4.82;;;;;;;19.56;96.58;99938.03;6185095;23;20016;-82
2022/07/04 03:56:58;;;;;;;6.25;4.35;;;;;;;19.49;96.90;99942.06;6212313;23;20017;-82
2022/07/04 03:59:23;;;;;;;5.13;4.30;;;;;;;19.63;93.92;99923.50;6211903;23;20012;-82
2022/07/04 04:01:49;;;;;;;6.60;4.15;;;;;;;19.74;93.41;99934.03;6186202;23;20013;-83
2022/07/04 04:06:59;;;;;;;4.90;4.13;;;;;;;19.88;93.55;99938.75;6192609;23;20348;-88
2022/07/04 04:09:24;;;;;;;6.07;4.32;;;;;;;20.00;92.59;99940.34;6215616;23;20012;-89
2022/07/04 04:11:51;;;;;;;7.03;4.60;;;;;;;20.21;92.22;99933.28;6214816;23;20008;-89
2022/07/04 04:14:18;;;;;;;6.63;4.68;;;;;;;20.29;91.28;99927.97;6214967;23;20394;-88
2022/07/04 04:16:43;;;;;;;4.85;4.35;;;;;;;20.53;90.40;99936.75;6212996;23;20013;-90
2022/07/04 04:19:12;;;;;;;5.20;4.70;;;;;;;20.50;90.25;99949.03;6188473;23;20012;-89
2022/07/04 04:21:37;;;;;;;6.47;4.70;;;;;;;20.29;92.07;99954.09;6214957;23;20016;-89
2022/07/04 04:24:03;;;;;;;6.15;4.57;;;;;;;20.34;90.94;99963.84;6188166;23;20435;-89
2022/07/04 04:26:29;;;;;;;6.35;5.00;;;;;;;20.28;91.45;99972.22;6214177;23;20439;-88
2022/07/04 04:28:55;;;;;;;5.88;4.60;;;;;;;20.28;92.04;99966.59;6214265;23;20004;-88
2022/07/04 04:31:20;;;;;;;6.53;4.97;;;;;;;20.44;90.99;99957.47;6214688;23;20019;-88
2022/07/04 04:33:46;;;;;;;6.55;4.88;;;;;;;20.70;89.90;99962.16;6214013;23;20549;-88
2022/07/04 04:36:11;;;;;;;9.07;4.70;;;;;;;20.90;88.30;99959.13;6214865;23;20423;-88
2022/07/04 04:38:37;;;;;;;4.80;4.28;;;;;;;20.90;89.55;99961.94;6188358;23;20087;-90
2022/07/04 04:41:03;;;;;;;6.05;4.47;;;;;;;21.04;88.81;99965.78;6187463;23;20012;-88
2022/07/04 04:43:28;;;;;;;7.60;4.30;;;;;;;21.09;88.31;99954.53;6187582;23;20496;-88
2022/07/04 04:45:54;;;;;;;6.45;4.32;;;;;;;21.19;87.64;99961.47;6214765;23;20627;-88
2022/07/04 04:48:19;;;;;;;7.10;4.25;;;;;;;21.15;86.65;99958.13;6215186;23;20012;-89
2022/07/04 04:50:45;;;;;;;6.60;4.55;;;;;;;21.29;86.20;99959.94;6213814;23;20004;-89
2022/07/04 04:53:11;;;;;;;4.85;4.35;;;;;;;21.30;86.03;99957.91;6214451;23;20070;-89
2022/07/04 04:55:37;;;;;;;5.53;4.20;;;;;;;21.50;85.30;99959.69;6214354;23;20390;-89
2022/07/04 04:58:02;;;;;;;7.53;4.47;;;;;;;21.64;83.95;99958.63;6215895;23;20013;-88
2022/07/04 05:00:28;;;;;;;9.25;4.63;;;;;;;21.73;83.82;99959.16;6214753;23;20055;-88
2022/07/04 05:02:53;;;;;;;5.45;4.45;;;;;;;21.94;83.71;99958.88;6212481;23;20000;-88
2022/07/04 05:05:19;;;;;;;8.77;4.53;;;;;;;21.93;83.09;99957.31;6215322;23;20015;-88
2022/07/04 05:07:44;;;;;;;8.07;4.35;;;;;;;22.10;83.00;99960.88;6214140;23;20087;-89
2022/07/04 05:10:10;;;;;;;6.68;4.32;;;;;;;22.23;83.29;99953.41;6214714;23;20354;-88
2022/07/04 05:12:36;;;;;;;6.05;4.25;;;;;;;22.38;81.33;99963.59;6187680;23;20016;-88
2022/07/04 05:15:02;;;;;;;7.03;4.35;;;;;;;22.32;81.77;99967.22;6187547;23;20047;-88
2022/07/04 05:17:27;;;;;;;7.25;4.20;;;;;;;22.73;81.23;99958.03;6187381;23;20378;-90
2022/07/04 05:19:53;;;;;;;8.00;4.70;;;;;;;22.82;80.03;99966.22;6213412;23;20078;-89
2022/07/04 05:22:18;;;;;;;5.93;4.32;;;;;;;22.96;80.21;99962.28;6213394;23;20008;-89
2022/07/04 05:24:44;;;;;;;6.47;3.88;;;;;;;23.08;79.77;99963.75;6213103;23;20016;-89
2022/07/04 05:27:10;;;;;;;5.68;4.78;;;;;;;23.20;78.18;99965.19;6188258;23;20008;-90
2022/07/04 05:29:35;;;;;;;6.30;4.38;;;;;;;23.34;76.56;99968.16;6214215;23;20062;-89
2022/07/04 05:32:01;;;;;;;6.00;4.40;;;;;;;23.57;74.41;99958.22;6213923;23;20015;-90
2022/07/04 05:34:26;;;;;;;5.55;4.03;;;;;;;23.84;68.25;99970.56;6213710;23;20011;-88
2022/07/04 05:36:54;;;;;;;4.72;4.15;;;;;;;24.03;67.90;99949.50;6213656;23;20075;-88
2022/07/04 05:39:20;;;;;;;5.25;4.63;;;;;;;24.46;66.99;99963.72;6213406;23;20013;-82
2022/07/04 05:41:46;;;;;;;6.05;4.03;;;;;;;24.67;71.74;99966.03;6186329;23;20047;-81
2022/07/04 05:44:11;;;;;;;6.75;4.32;;;;;;;24.90;73.75;99970.09;6212600;23;20077;-82
2022/07/04 05:46:36;;;;;;;6.28;4.40;;;;;;;25.18;73.24;99966.84;6212885;23;20013;-82
2022/07/04 05:49:02;;;;;;;8.48;5.00;;;;;;;25.45;72.72;99957.09;6212446;23;20082;-82
2022/07/04 05:51:27;;;;;;;9.35;4.40;;;;;;;25.76;70.37;99966.91;6212797;23;20004;-81
2022/07/04 05:53:53;;;;;;;6.95;4.70;;;;;;;25.65;70.00;99969.94;6212318;23;20375;-81
2022/07/04 05:56:19;;;;;;;5.40;4.28;;;;;;;25.96;67.88;99958.50;6212774;23;20172;-88
2022/07/04 05:58:46;;;;;;;5.22;4.22;;;;;;;26.10;67.36;99967.81;6161232;23;20012;-90
2022/07/04 06:01:12;;;;;;;9.38;4.85;;;;;;;26.20;65.03;99968.16;6186322;23;20027;-90
2022/07/04 06:03:37;;;;;;;6.55;4.22;;;;;;;26.44;64.86;99963.00;6210176;23;20457;-89
2022/07/04 06:06:04;;;;;;;6.95;4.57;;;;;;;26.42;64.60;99962.00;6182571;23;20012;-88
2022/07/04 06:08:29;;;;;;;6.03;4.20;;;;;;;26.63;64.51;99970.63;6190528;23;20035;-92
2022/07/04 06:10:55;;;;;;;5.55;4.35;;;;;;;26.74;64.82;99968.28;6197751;23;20012;-92
2022/07/04 06:13:21;;;;;;;8.80;4.47;;;;;;;26.81;64.15;99976.13;6225600;23;20009;-93
2022/07/04 06:15:47;;;;;;;6.45;4.18;;;;;;;27.14;63.43;99976.72;6200540;23;20062;-93
2022/07/04 06:18:13;;;;;;;7.72;4.20;;;;;;;27.21;63.84;99976.06;6225881;23;20019;-92
2022/07/04 06:20:42;;;;;;;5.25;4.22;;;;;;;27.43;62.60;99969.03;6172666;23;20031;-92
2022/07/04 06:23:07;;;;;;;8.95;4.45;;;;;;;27.45;61.47;99972.88;6221743;23;20035;-92
2022/07/04 06:25:34;;;;;;;5.85;3.90;;;;;;;27.49;61.89;99973.31;6221672;23;20017;-92
2022/07/04 06:28:00;;;;;;;5.43;4.50;;;;;;;27.22;58.47;99983.25;6193159;23;20319;-93
2022/07/04 06:30:26;;;;;;;6.63;4.57;;;;;;;27.14;57.38;99994.56;6192054;23;20065;-92
2022/07/04 06:32:56;;;;;;;6.60;4.60;;;;;;;26.98;57.76;99992.09;6193578;23;20004;-93
2022/07/04 06:35:47;;;;;;;9.00;4.40;;;;;;;26.81;57.41;99995.31;6224493;23;20048;-92
2022/07/04 06:38:18;;;;;;;5.47;4.13;;;;;;;27.45;57.92;99989.94;6224882;23;20070;-92
2022/07/04 06:40:44;;;;;;;6.10;4.40;;;;;;;27.52;57.79;99994.97;6219612;23;20021;-91
2022/07/04 06:43:10;;;;;;;8.82;4.63;;;;;;;27.10;61.06;99999.06;6198736;23;20342;-91
2022/07/04 06:45:36;;;;;;;9.20;5.10;;;;;;;26.93;62.08;99990.94;6194781;23;20016;-92
2022/07/04 06:48:03;;;;;;;7.35;5.00;;;;;;;27.01;61.06;99991.78;6220244;23;20395;-94
2022/07/04 06:50:28;;;;;;;5.03;4.47;;;;;;;27.36;58.87;99990.44;6192614;23;20012;-93
2022/07/04 06:52:54;;;;;;;7.15;4.38;;;;;;;27.98;57.68;99979.00;6192084;23;20079;-90
2022/07/04 06:55:19;;;;;;;5.38;4.40;;;;;;;28.31;56.20;99977.31;6219150;23;20005;-91
2022/07/04 06:57:45;;;;;;;6.60;4.85;;;;;;;27.92;56.01;99969.06;6218135;23;20482;-93
2022/07/04 07:00:11;;;;;;;8.35;4.57;;;;;;;28.19;57.22;99976.88;6195657;23;20011;-90
2022/07/04 07:02:37;;;;;;;9.10;4.70;;;;;;;28.21;57.07;99979.19;6163716;23;20080;-89
2022/07/04 07:05:04;;;;;;;6.95;4.40;;;;;;;28.44;58.79;99974.34;6189351;23;20012;-89
2022/07/04 07:07:30;;;;;;;6.63;4.60;;;;;;;28.45;58.22;99981.59;6187301;23;20316;-88
2022/07/04 07:09:55;;;;;;;5.97;4.45;;;;;;;28.95;56.89;99982.19;6189827;23;20424;-88
2022/07/04 07:12:22;;;;;;;7.78;4.32;;;;;;;29.36;54.07;99979.06;6215850;23;20016;-89
2022/07/04 07:14:48;;;;;;;7.68;4.90;;;;;;;29.27;54.83;99985.31;6188652;23;20016;-88
2022/07/04 07:17:15;;;;;;;5.53;4.50;;;;;;;29.05;54.16;99986.03;6187582;23;20450;-90
2022/07/04 07:19:42;;;;;;;7.72;4.57;;;;;;;29.50;53.90;99985.38;6162825;23;20032;-90
2022/07/04 07:22:08;;;;;;;5.63;4.90;;;;;;;29.18;54.51;99965.88;6213665;23;20012;-90
2022/07/04 07:24:34;;;;;;;6.07;4.45;;;;;;;29.27;54.79;99971.03;6164349;23;20417;-88
2022/07/04 07:27:00;;;;;;;5.40;4.90;;;;;;;29.67;53.32;99974.13;6216399;23;20079;-87
2022/07/04 07:29:28;;;;;;;7.70;4.97;;;;;;;29.65;52.28;99986.13;6215639;23;20020;-89
2022/07/04 07:31:53;;;;;;;5.63;4.45;;;;;;;29.61;51.39;99985.75;6218373;23;20012;-87
2022/07/04 07:34:19;;;;;;;7.35;4.50;;;;;;;29.28;52.88;99975.44;6213798;23;20004;-88
2022/07/04 07:36:45;;;;;;;6.45;4.82;;;;;;;29.48;53.01;99971.63;6230499;23;20019;-88
2022/07/04 07:39:10;;;;;;;6.30;4.35;;;;;;;29.77;50.75;99980.03;6193335;23;20391;-89
2022/07/04 07:41:36;;;;;;;5.85;4.57;;;;;;;30.29;49.99;99973.47;6191120;23;20013;-88
2022/07/04 07:44:01;;;;;;;5.80;4.10;;;;;;;30.48;50.08;99967.38;6193435;23;20123;-88
2022/07/04 07:46:27;;;;;;;9.85;4.60;;;;;;;30.05;50.11;99966.28;6216687;23;20070;-88
2022/07/04 07:48:52;;;;;;;9.65;4.47;;;;;;;30.02;49.96;99958.88;6216325;23;20013;-89
2022/07/04 07:51:18;;;;;;;7.90;4.72;;;;;;;30.38;50.34;99950.00;6215278;23;20080;-88
2022/07/04 07:53:43;;;;;;;6.75;4.65;;;;;;;30.33;51.37;99953.81;6188076;23;20008;-89
2022/07/04 07:56:09;;;;;;;6.05;4.30;;;;;;;30.33;51.48;99955.94;6188836;23;20048;-89
2022/07/04 07:58:35;;;;;;;7.07;4.45;;;;;;;30.79;50.01;99950.81;6187390;23;20143;-89
2022/07/04 08:01:03;;;;;;;8.48;4.97;;;;;;;30.48;51.35;99956.69;6186418;23;20047;-88
2022/07/04 08:06:15;;;;;;;7.20;4.15;;;;;;;30.96;49.75;99951.66;6193133;23;20005;-88
2022/07/04 08:08:41;;;;;;;5.47;3.90;;;;;;;30.84;48.22;99955.56;6163041;23;20379;-89
2022/07/04 08:11:07;;;;;;;6.80;4.43;;;;;;;30.73;49.97;99964.59;6166013;23;20447;-88
2022/07/04 08:13:32;;;;;;;8.02;4.30;;;;;;;31.18;49.14;99958.63;6188828;23;20039;-88
2022/07/04 08:15:58;;;;;;;6.35;3.97;;;;;;;31.05;47.47;99955.28;6187824;23;20091;-88
2022/07/04 08:18:23;;;;;;;7.93;4.30;;;;;;;31.23;47.08;99965.47;6187117;23;20020;-88
2022/07/04 08:20:51;;;;;;;7.53;4.22;;;;;;;31.43;48.37;99967.22;6185986;23;20001;-87
2022/07/04 08:23:16;;;;;;;5.88;4.13;;;;;;;31.50;46.59;99962.78;6186999;23;20020;-87
2022/07/04 08:25:42;;;;;;;7.38;4.13;;;;;;;31.12;47.74;99960.19;6186927;23;20080;-87
2022/07/04 08:28:08;;;;;;;5.80;4.30;;;;;;;31.52;48.87;99958.00;6186959;23;20338;-87
2022/07/04 08:30:34;;;;;;;6.28;4.05;;;;;;;31.65;47.03;99962.69;6187196;23;20024;-88
2022/07/04 08:32:59;;;;;;;5.05;4.10;;;;;;;31.92;47.64;99960.72;6162493;23;20017;-87
2022/07/04 08:35:25;;;;;;;6.57;3.75;;;;;;;31.96;46.58;99966.03;6187565;23;20017;-90
2022/07/04 08:37:53;;;;;;;6.30;4.38;;;;;;;32.10;46.69;99959.44;6187326;23;20012;-88
2022/07/04 08:40:23;;;;;;;7.50;4.22;;;;;;;31.82;47.57;99968.47;6214085;23;20084;-88
2022/07/04 08:42:49;;;;;;;5.38;3.97;;;;;;;31.73;48.52;99955.53;6187129;23;20496;-87
2022/07/04 08:45:16;;;;;;;5.43;3.90;;;;;;;31.80;46.96;99956.81;6187185;23;20023;-88
2022/07/04 08:47:42;;;;;;;6.40;3.92;;;;;;;31.30;48.25;99959.66;6213703;23;20008;-89
2022/07/04 08:50:15;;;;;;;6.32;4.20;;;;;;;30.98;48.11;99959.66;6187081;23;20013;-89
2022/07/04 08:52:43;;;;;;;4.68;4.10;;;;;;;30.83;51.13;99959.75;6187209;23;20017;-88
2022/07/04 09:00:40;;;;;;;6.57;3.72;;;;;;;31.57;47.58;99953.41;6193788;23;20023;-87
2022/07/04 09:03:06;;;;;;;5.90;3.92;;;;;;;31.89;45.59;99950.41;6227184;23;20012;-87
2022/07/04 09:05:32;;;;;;;6.88;3.95;;;;;;;31.83;43.59;99967.09;6231409;23;20001;-87
2022/07/04 09:07:58;;;;;;;6.13;4.05;;;;;;;31.93;46.33;99963.00;6212260;23;20005;-85
2022/07/04 09:10:24;;;;;;;7.53;3.75;;;;;;;32.27;41.41;99959.41;6197789;23;20007;-88
2022/07/04 09:12:51;;;;;;;7.80;3.90;;;;;;;32.71;43.59;99958.72;6214784;23;20015;-89
2022/07/04 09:15:17;;;;;;;4.28;3.60;;;;;;;32.53;43.04;99957.97;6189292;23;20015;-88
2022/07/04 09:17:43;;;;;;;7.00;3.70;;;;;;;32.88;39.77;99973.03;6189694;23;20016;-87
2022/07/04 09:20:22;;;;;;;6.72;4.25;;;;;;;33.18;38.24;99972.66;6187382;23;20027;-88
2022/07/04 09:22:49;;;;;;;6.25;3.78;;;;;;;32.38;41.52;99943.81;6187756;23;20047;-88
2022/07/04 09:25:15;;;;;;;6.65;4.10;;;;;;;32.64;41.47;99959.56;6192406;23;20076;-88
2022/07/04 09:27:44;;;;;;;6.25;4.03;;;;;;;32.29;38.75;99964.56;6168656;23;20030;-88
2022/07/04 09:30:11;;;;;;;4.88;4.20;;;;;;;32.19;42.26;99967.34;6216067;23;20035;-89
2022/07/04 09:32:43;;;;;;;6.97;4.10;;;;;;;32.36;40.98;99957.97;6216164;23;20036;-87
2022/07/04 09:35:16;;;;;;;7.75;4.10;;;;;;;32.59;41.46;99960.59;6189829;23;20016;-89
2022/07/04 09:37:47;;;;;;;5.75;4.10;;;;;;;32.31;41.51;99962.63;6188228;23;20453;-89
2022/07/04 09:41:24;;;;;;;7.07;4.50;;;;;;;32.71;41.98;99964.47;6216241;23;20048;-88
2022/07/04 09:43:22;;;;;;;7.40;4.85;;;;;;;32.82;40.98;99961.06;6213799;23;20038;-88
2022/07/04 09:46:13;;;;;;;7.35;4.32;;;;;;;32.51;39.13;99939.81;6185841;23;20004;-88
2022/07/04 09:48:50;;;;;;;8.38;4.03;;;;;;;32.64;38.77;99943.09;6156490;23;20083;-89
2022/07/04 09:51:35;;;;;;;6.00;4.20;;;;;;;33.30;37.41;99941.22;6188623;23;20028;-87
2022/07/04 09:54:16;;;;;;;8.07;3.97;;;;;;;33.38;36.54;99936.13;6185612;23;20139;-88
2022/07/04 09:56:43;;;;;;;8.75;3.97;;;;;;;33.35;37.00;99939.44;6186281;23;20079;-88
2022/07/04 09:59:09;;;;;;;5.53;3.92;;;;;;;33.27;36.98;99937.44;6185532;23;20016;-88
2022/07/04 10:01:34;;;;;;;6.47;3.97;;;;;;;33.92;34.62;99945.38;6212921;23;20012;-88
2022/07/04 10:03:59;;;;;;;5.78;4.00;;;;;;;34.33;34.49;99934.06;6187266;23;20004;-89
2022/07/04 10:06:25;;;;;;;7.65;4.03;;;;;;;33.82;34.74;99935.19;6213707;23;20087;-87
2022/07/04 10:08:51;;;;;;;5.75;3.88;;;;;;;34.32;34.11;99936.19;6185927;23;20058;-87
2022/07/04 10:11:18;;;;;;;5.93;3.83;;;;;;;34.84;34.78;99932.81;6212960;23;20017;-88
2022/07/04 10:13:44;;;;;;;4.68;3.80;;;;;;;34.82;34.09;99933.41;6210951;23;20012;-88
2022/07/04 10:16:09;;;;;;;5.05;3.45;;;;;;;34.34;33.22;99933.44;6211638;23;20012;-87
2022/07/04 10:18:35;;;;;;;6.72;4.07;;;;;;;34.31;33.90;99939.66;6162373;23;20216;-87
2022/07/04 10:21:01;;;;;;;5.00;3.80;;;;;;;33.79;33.67;99937.16;6212847;23;20489;-87
2022/07/04 10:23:31;;;;;;;7.28;3.80;;;;;;;34.05;35.08;99942.03;6162134;23;20019;-88
2022/07/04 10:25:57;;;;;;;5.80;4.35;;;;;;;33.95;34.21;99932.66;6186598;23;20004;-88
2022/07/04 10:28:23;;;;;;;5.90;3.97;;;;;;;34.48;36.01;99930.88;6215143;23;20017;-87
2022/07/04 10:30:54;;;;;;;7.00;4.13;;;;;;;34.50;32.46;99916.59;6192409;23;20394;-87
2022/07/04 10:33:28;;;;;;;5.57;3.90;;;;;;;34.62;33.62;99924.03;6221139;23;20027;-88
2022/07/04 10:36:01;;;;;;;4.75;4.00;;;;;;;34.73;33.68;99911.16;6218877;23;20020;-87
2022/07/04 10:38:34;;;;;;;4.72;3.60;;;;;;;35.10;33.23;99920.31;6187588;23;20390;-87
2022/07/04 10:41:04;;;;;;;8.25;3.80;;;;;;;35.26;32.83;99912.06;6214646;23;20365;-87
2022/07/04 10:43:31;;;;;;;5.30;3.58;;;;;;;34.86;33.72;99912.78;6212625;23;20834;-87
2022/07/04 10:46:05;;;;;;;6.25;3.90;;;;;;;35.35;33.02;99906.22;6212268;23;20012;-88
2022/07/04 10:48:31;;;;;;;5.85;3.88;;;;;;;34.84;32.14;99916.28;6186545;23;20027;-88
2022/07/04 10:51:04;;;;;;;6.43;3.53;;;;;;;34.33;33.52;99902.41;6214287;23;20374;-88
2022/07/04 10:53:31;;;;;;;5.47;3.58;;;;;;;34.73;33.14;99905.41;6186572;23;20068;-87
2022/07/04 10:56:19;;;;;;;6.55;4.32;;;;;;;34.27;33.78;99907.69;6215386;23;20038;-87
2022/07/04 10:58:45;;;;;;;7.20;4.40;;;;;;;33.97;34.64;99903.28;6197481;23;20470;-88
2022/07/04 11:01:15;;;;;;;5.13;3.45;;;;;;;34.21;35.78;99904.38;6216620;23;20024;-87
2022/07/04 11:03:45;;;;;;;5.25;3.70;;;;;;;34.10;34.21;99897.06;6187615;23;20104;-87
2022/07/04 11:06:32;;;;;;;6.63;4.40;;;;;;;34.93;33.68;99895.31;6215328;23;20009;-88
2022/07/04 11:09:17;;;;;;;5.72;3.88;;;;;;;34.99;34.26;99881.34;6185975;23;20024;-87
2022/07/04 11:12:06;;;;;;;4.80;3.72;;;;;;;35.03;33.33;99881.63;6188560;23;20012;-87
2022/07/04 11:14:34;;;;;;;5.85;4.00;;;;;;;35.02;34.28;99880.09;6212663;23;20091;-87
2022/07/04 11:17:00;;;;;;;7.00;4.60;;;;;;;35.50;35.64;99871.25;6213724;23;20368;-87
2022/07/04 11:19:27;;;;;;;6.07;4.25;;;;;;;35.59;31.91;99880.47;6186436;23;20025;-87
2022/07/04 11:21:55;;;;;;;8.05;3.92;;;;;;;35.27;31.54;99876.84;6188235;23;20414;-87
2022/07/04 11:24:21;;;;;;;6.90;3.97;;;;;;;35.20;32.11;99869.13;6213880;23;20362;-88
2022/07/04 11:26:46;;;;;;;5.95;3.60;;;;;;;35.48;31.10;99881.88;6216688;23;20013;-88
2022/07/04 11:29:13;;;;;;;7.18;3.55;;;;;;;35.97;31.85;99877.31;6189530;23;20100;-88
2022/07/04 11:31:43;;;;;;;6.40;3.97;;;;;;;36.00;32.93;99873.94;6191772;23;20048;-87
2022/07/04 11:34:09;;;;;;;4.70;3.50;;;;;;;35.39;30.23;99866.13;6191376;23;20046;-86
2022/07/04 11:36:35;;;;;;;5.25;3.80;;;;;;;35.06;29.30;99873.88;6216175;23;20462;-87
2022/07/04 11:39:07;;;;;;;5.38;3.92;;;;;;;35.36;31.32;99872.38;6215307;23;20060;-88
2022/07/04 11:47:37;;;;;;;5.03;3.22;;;;;;;35.02;28.63;99859.91;6214111;23;20016;-89
2022/07/04 11:50:06;;;;;;;6.78;3.58;;;;;;;35.92;28.12;99856.09;6205617;23;20027;-88
2022/07/04 11:52:37;;;;;;;6.80;3.60;;;;;;;35.36;27.83;99860.84;6216005;23;20027;-88
2022/07/04 11:55:04;;;;;;;6.45;3.13;;;;;;;35.86;27.83;99861.47;6214498;23;20354;-87